Stations météo

réclame
Mon MeteoGroup
Milano/Linate, Italie (16081): Température de l'air & dewpoint: 17.07.2018 00:00:00 - 23.07.2018 00:00:00 (CEST)Milano/Linate, Italie (16081): Vitesse du vent: 17.07.2018 00:00:00 - 23.07.2018 00:00:00 (CEST)Milano/Linate, Italie (16081): Direction du vent: 17.07.2018 00:00:00 - 23.07.2018 00:00:00 (CEST)Milano/Linate, Italie (16081): reduced air pressure: 17.07.2018 00:00:00 - 23.07.2018 00:00:00 (CEST)Milano/Linate, Italie (16081): Quantités de précipitations: 17.07.2018 00:00:00 - 23.07.2018 00:00:00 (CEST)
Date & Time tt [°C] td [°C] ff [km/h] ff [knt] dd ppp [hPa] rr [mm]
23.07.2018 00:00:00 - - - - - - -
22.07.2018 23:00:00 25,3 19,6 4 2 WSW 1009,8 -
22.07.2018 22:00:00 26,0 20,7 0 0 N 1009,5 -
22.07.2018 21:00:00 27,1 19,9 0 0 N 1009,0 -
22.07.2018 20:00:00 27,5 19,8 0 0 N 1008,5 0,0
22.07.2018 19:00:00 30,0 20,5 4 2 SSW 1008,1 -
22.07.2018 18:00:00 30,7 20,9 5 3 SSE 1007,9 -
22.07.2018 17:00:00 30,6 21,9 5 3 SE 1008,2 -
22.07.2018 16:00:00 29,8 22,0 5 3 WSW 1008,6 -
22.07.2018 15:00:00 29,5 22,9 5 3 SW 1009,2 -
22.07.2018 14:00:00 28,4 22,1 5 3 SW 1009,7 0,0
22.07.2018 13:00:00 27,8 21,5 5 3 E 1010,1 -
22.07.2018 12:00:00 27,0 20,5 4 2 W 1010,3 -
22.07.2018 11:00:00 25,3 19,6 5 3 W 1010,3 -
22.07.2018 10:00:00 23,2 20,5 4 2 N 1010,4 -
22.07.2018 09:00:00 21,0 20,3 2 1 SSW 1010,6 -
22.07.2018 08:00:00 19,7 19,2 4 2 ESE 1010,7 0,0
22.07.2018 07:00:00 18,6 18,5 0 0 N 1010,6 -
22.07.2018 06:00:00 18,7 18,6 0 0 N 1010,4 -
22.07.2018 05:00:00 19,1 18,6 0 0 N 1010,1 -
22.07.2018 04:00:00 19,6 18,7 0 0 N 1010,2 -
22.07.2018 03:00:00 20,4 19,2 0 0 N 1010,7 -
22.07.2018 02:00:00 21,3 20,2 0 0 N 1011,0 0,0
22.07.2018 01:00:00 22,3 20,5 2 1 W 1011,0 -
22.07.2018 00:00:00 22,4 20,3 2 1 W 1010,9 -
21.07.2018 23:00:00 22,7 20,4 2 1 W 1010,8 -
21.07.2018 22:00:00 23,1 20,6 0 0 N 1010,8 -
21.07.2018 21:00:00 24,0 20,7 4 2 ENE 1010,1 -
21.07.2018 20:00:00 24,7 19,9 2 1 E 1009,5 -
21.07.2018 19:00:00 24,8 20,0 2 1 NE 1009,9 -
21.07.2018 18:00:00 24,8 20,0 2 1 SE 1010,7 -
21.07.2018 17:00:00 24,2 20,1 2 1 SSW 1010,8 -
21.07.2018 16:00:00 23,8 21,1 2 1 NNW 1011,6 -
21.07.2018 15:00:00 23,3 21,5 2 1 SE 1011,8 -
21.07.2018 14:00:00 20,9 20,8 4 2 N 1012,6 -
21.07.2018 13:00:00 19,1 19,0 2 1 WNW 1012,7 -
21.07.2018 12:00:00 19,1 19,0 2 1 SE 1012,6 -
21.07.2018 11:00:00 19,4 19,3 2 1 ENE 1012,0 -
21.07.2018 10:00:00 19,1 19,0 2 1 E 1011,7 -
21.07.2018 09:00:00 19,1 19,0 2 1 SSE 1011,5 -
21.07.2018 08:00:00 19,2 19,1 0 0 N 1011,7 -
21.07.2018 07:00:00 18,7 18,6 0 0 N 1011,5 -
21.07.2018 06:00:00 18,4 18,3 2 1 SW 1011,9 -
21.07.2018 05:00:00 18,3 18,2 0 0 N 1012,2 -
21.07.2018 04:00:00 18,3 18,2 2 1 NNW 1011,9 -
21.07.2018 03:00:00 18,6 18,5 2 1 NNW 1011,8 -
21.07.2018 02:00:00 20,3 20,2 4 2 NNW 1013,1 -
21.07.2018 01:00:00 19,9 19,8 2 1 WNW 1012,2 -
21.07.2018 00:00:00 20,8 20,7 5 3 E 1012,1 -
20.07.2018 23:00:00 21,5 21,4 11 6 ESE 1012,0 -
20.07.2018 22:00:00 22,4 21,3 4 2 W 1011,1 -
20.07.2018 21:00:00 24,3 17,5 4 2 E 1011,1 -
20.07.2018 20:00:00 30,1 22,5 4 2 WSW 1009,5 0,0
20.07.2018 19:00:00 31,9 22,3 5 3 S 1009,1 -
20.07.2018 18:00:00 33,1 20,9 5 3 NW 1009,5 -
20.07.2018 17:00:00 32,7 20,9 4 2 NE 1009,9 -
20.07.2018 16:00:00 32,4 20,9 4 2 SSE 1010,7 -
20.07.2018 15:00:00 31,8 21,9 5 3 S 1011,0 -
20.07.2018 14:00:00 31,2 22,2 5 3 SSE 1011,8 0,0
20.07.2018 13:00:00 30,8 23,7 8 4 SSW 1012,4 -
20.07.2018 12:00:00 29,6 23,3 5 3 S 1012,5 -
20.07.2018 11:00:00 27,9 23,4 2 1 WSW 1012,9 -
20.07.2018 10:00:00 26,6 23,0 5 3 WSW 1013,5 -
20.07.2018 09:00:00 25,2 22,4 4 2 WSW 1013,3 -
20.07.2018 08:00:00 24,4 22,2 4 2 W 1013,1 0,0
20.07.2018 07:00:00 23,8 21,6 4 2 E 1013,3 -
20.07.2018 06:00:00 23,9 21,2 0 0 N 1012,9 -
20.07.2018 05:00:00 24,4 21,1 2 1 WSW 1012,7 -
20.07.2018 04:00:00 24,7 20,5 4 2 WSW 1012,6 -
20.07.2018 03:00:00 25,1 20,1 4 2 W 1012,5 -
20.07.2018 02:00:00 25,5 19,6 2 1 W 1012,8 0,0
20.07.2018 01:00:00 26,2 19,8 5 3 W 1012,8 -
20.07.2018 00:00:00 27,0 21,0 2 1 WSW 1012,5 -
19.07.2018 23:00:00 28,0 21,7 4 2 WSW 1012,2 -
19.07.2018 22:00:00 28,9 18,3 4 2 SW 1012,1 -
19.07.2018 21:00:00 30,7 18,1 2 1 S 1011,3 -
19.07.2018 20:00:00 32,0 17,1 2 1 NW 1011,2 0,0
19.07.2018 19:00:00 32,6 16,4 4 2 NW 1011,2 -
19.07.2018 18:00:00 32,9 15,9 4 2 SE 1011,2 -
19.07.2018 17:00:00 32,8 16,6 5 3 SE 1011,5 -
19.07.2018 16:00:00 33,3 17,5 5 3 WSW 1012,0 -
19.07.2018 15:00:00 32,4 19,6 5 3 WSW 1012,3 -
19.07.2018 14:00:00 32,0 19,3 5 3 WNW 1012,6 0,0
19.07.2018 13:00:00 30,8 18,2 4 2 SSW 1012,9 -
19.07.2018 12:00:00 29,5 20,0 4 2 E 1013,0 -
19.07.2018 11:00:00 28,4 20,9 5 3 NW 1013,3 -
19.07.2018 10:00:00 26,5 20,1 5 3 W 1013,4 -
19.07.2018 09:00:00 24,8 20,0 4 2 WSW 1013,3 -
19.07.2018 08:00:00 23,1 19,6 2 1 SW 1013,2 0,0
19.07.2018 07:00:00 21,1 18,6 0 0 N 1013,1 -
19.07.2018 06:00:00 21,0 17,5 0 0 N 1013,2 -
19.07.2018 05:00:00 21,6 17,5 0 0 N 1013,2 -
19.07.2018 04:00:00 22,5 17,1 0 0 N 1012,8 -
19.07.2018 03:00:00 23,9 16,6 0 0 N 1013,0 -
19.07.2018 02:00:00 25,2 16,3 5 3 W 1013,0 0,0
19.07.2018 01:00:00 25,9 16,1 5 3 W 1012,8 -
19.07.2018 00:00:00 26,4 15,4 4 2 W 1012,5 -
18.07.2018 23:00:00 27,3 15,3 4 2 WSW 1012,3 -
18.07.2018 22:00:00 28,6 16,1 2 1 WSW 1012,1 -
18.07.2018 21:00:00 30,6 17,6 4 2 SW 1011,5 -
18.07.2018 20:00:00 32,0 16,3 4 2 W 1011,3 0,0
18.07.2018 19:00:00 33,1 17,3 4 2 SW 1011,3 -
18.07.2018 18:00:00 33,8 15,3 5 3 WSW 1011,7 -
18.07.2018 17:00:00 33,6 16,0 5 3 NE 1012,1 -
18.07.2018 16:00:00 33,3 18,3 5 3 ENE 1012,5 -
18.07.2018 15:00:00 32,7 20,2 4 2 N 1012,9 -
18.07.2018 14:00:00 31,9 19,5 4 2 E 1013,5 0,0
18.07.2018 13:00:00 31,0 20,0 4 2 SSE 1013,8 -
18.07.2018 12:00:00 30,2 19,8 4 2 SSE 1014,0 -
18.07.2018 11:00:00 28,8 17,0 4 2 SE 1014,3 -
18.07.2018 10:00:00 26,3 18,1 4 2 NNW 1014,5 -
18.07.2018 09:00:00 23,8 18,4 2 1 SSE 1014,7 -
18.07.2018 08:00:00 21,4 18,7 0 0 N 1014,5 0,0
18.07.2018 07:00:00 19,9 18,8 0 0 N 1014,4 -
18.07.2018 06:00:00 20,0 18,6 0 0 N 1014,1 -
18.07.2018 05:00:00 20,8 18,7 0 0 N 1013,8 -
18.07.2018 04:00:00 21,6 19,6 0 0 N 1013,8 -
18.07.2018 03:00:00 22,7 20,4 0 0 N 1013,5 -
18.07.2018 02:00:00 23,9 20,6 0 0 N 1013,5 0,0
18.07.2018 01:00:00 24,4 20,9 0 0 N 1013,3 -
18.07.2018 00:00:00 25,2 20,0 0 0 N 1012,7 -
17.07.2018 23:00:00 26,5 17,8 2 1 E 1012,4 -
17.07.2018 22:00:00 28,3 17,1 2 1 WSW 1012,0 -
17.07.2018 21:00:00 29,7 16,8 5 3 W 1011,0 -
17.07.2018 20:00:00 30,9 16,5 9 5 SSE 1010,5 0,0
17.07.2018 19:00:00 32,2 14,8 11 6 W 1010,2 -
17.07.2018 18:00:00 32,2 19,4 8 4 SW 1010,2 -
17.07.2018 17:00:00 31,8 21,9 8 4 SW 1010,4 -
17.07.2018 16:00:00 31,3 21,7 8 4 SSW 1010,7 -
17.07.2018 15:00:00 31,6 21,7 8 4 NNE 1010,6 -
17.07.2018 14:00:00 30,2 21,5 5 3 SW 1011,1 0,0
17.07.2018 13:00:00 28,6 20,6 5 3 WSW 1011,7 -
17.07.2018 12:00:00 27,5 21,0 5 3 WSW 1011,9 -
17.07.2018 11:00:00 25,5 22,5 4 2 SE 1011,9 -
17.07.2018 10:00:00 22,8 21,0 2 1 E 1012,2 -
17.07.2018 09:00:00 20,6 20,5 2 1 NNW 1012,4 -
17.07.2018 08:00:00 19,4 19,3 0 0 N 1012,2 0,0
17.07.2018 07:00:00 18,7 18,6 2 1 ESE 1011,8 -
17.07.2018 06:00:00 18,9 18,8 0 0 N 1011,4 -
17.07.2018 05:00:00 19,1 19,0 2 1 W 1010,8 -
17.07.2018 04:00:00 19,3 19,2 2 1 SSW 1011,1 -
17.07.2018 03:00:00 19,5 19,4 2 1 WSW 1010,4 -
17.07.2018 02:00:00 20,0 19,9 4 2 SW 1010,4 0,0
17.07.2018 01:00:00 20,6 19,5 2 1 W 1010,2 -
17.07.2018 00:00:00 20,7 19,6 2 1 W 1010,5 -

tt = Température de l'air
td = dewpoint
ff = Vitesse du vent
dd = Direction du vent
ppp = reduced air pressure
rr = Quantités de précipitations

stations d'obs. à proximité